sensor_id;sensor_type;location;lat;lon;timestamp;temperature;humidity
18577;DHT22;9418;52.694;13.294;2022-07-29T00:01:34;15.10;99.90
18577;DHT22;9418;52.694;13.294;2022-07-29T00:04:02;15.00;99.90
18577;DHT22;9418;52.694;13.294;2022-07-29T00:06:29;15.00;99.90
18577;DHT22;9418;52.694;13.294;2022-07-29T00:08:55;15.00;99.90
18577;DHT22;9418;52.694;13.294;2022-07-29T00:11:22;15.00;99.90
18577;DHT22;9418;52.694;13.294;2022-07-29T00:13:48;15.00;99.90
18577;DHT22;9418;52.694;13.294;2022-07-29T00:16:15;15.00;99.90
18577;DHT22;9418;52.694;13.294;2022-07-29T00:18:41;14.90;99.90
18577;DHT22;9418;52.694;13.294;2022-07-29T00:21:10;14.90;99.90
18577;DHT22;9418;52.694;13.294;2022-07-29T00:23:36;14.90;99.90
18577;DHT22;9418;52.694;13.294;2022-07-29T00:26:03;14.90;99.90
18577;DHT22;9418;52.694;13.294;2022-07-29T00:28:29;14.80;99.90
18577;DHT22;9418;52.694;13.294;2022-07-29T00:30:56;14.80;99.90
18577;DHT22;9418;52.694;13.294;2022-07-29T00:33:22;14.80;99.90
18577;DHT22;9418;52.694;13.294;2022-07-29T00:35:49;14.80;99.90
18577;DHT22;9418;52.694;13.294;2022-07-29T00:38:17;14.80;99.90
18577;DHT22;9418;52.694;13.294;2022-07-29T00:40:45;14.80;99.90
18577;DHT22;9418;52.694;13.294;2022-07-29T00:43:13;14.70;99.90
18577;DHT22;9418;52.694;13.294;2022-07-29T00:45:40;14.70;99.90
18577;DHT22;9418;52.694;13.294;2022-07-29T00:48:06;14.70;99.90
18577;DHT22;9418;52.694;13.294;2022-07-29T00:50:34;14.70;99.90
18577;DHT22;9418;52.694;13.294;2022-07-29T00:53:02;14.70;99.90
18577;DHT22;9418;52.694;13.294;2022-07-29T00:55:31;14.60;99.90
18577;DHT22;9418;52.694;13.294;2022-07-29T00:57:58;14.60;99.90
18577;DHT22;9418;52.694;13.294;2022-07-29T01:00:26;14.60;99.90
18577;DHT22;9418;52.694;13.294;2022-07-29T01:02:53;14.60;99.90
18577;DHT22;9418;52.694;13.294;2022-07-29T01:05:22;14.60;99.90
18577;DHT22;9418;52.694;13.294;2022-07-29T01:07:51;14.60;99.90
18577;DHT22;9418;52.694;13.294;2022-07-29T01:10:19;14.50;99.90
18577;DHT22;9418;52.694;13.294;2022-07-29T01:12:49;14.50;99.90
18577;DHT22;9418;52.694;13.294;2022-07-29T01:15:17;14.50;99.90
18577;DHT22;9418;52.694;13.294;2022-07-29T01:17:49;14.50;99.90
18577;DHT22;9418;52.694;13.294;2022-07-29T01:20:22;14.40;99.90
18577;DHT22;9418;52.694;13.294;2022-07-29T01:23:13;14.40;99.90
18577;DHT22;9418;52.694;13.294;2022-07-29T01:26:01;14.30;99.90
18577;DHT22;9418;52.694;13.294;2022-07-29T01:31:43;14.30;99.90
18577;DHT22;9418;52.694;13.294;2022-07-29T01:34:17;14.30;99.90
18577;DHT22;9418;52.694;13.294;2022-07-29T01:36:48;14.30;99.90
18577;DHT22;9418;52.694;13.294;2022-07-29T01:39:21;14.30;99.90
18577;DHT22;9418;52.694;13.294;2022-07-29T01:41:56;14.30;99.90
18577;DHT22;9418;52.694;13.294;2022-07-29T01:44:28;14.20;99.90
18577;DHT22;9418;52.694;13.294;2022-07-29T01:47:02;14.20;99.90
18577;DHT22;9418;52.694;13.294;2022-07-29T01:49:35;14.20;99.90
18577;DHT22;9418;52.694;13.294;2022-07-29T01:52:07;14.20;99.90
18577;DHT22;9418;52.694;13.294;2022-07-29T01:54:38;14.20;99.90
18577;DHT22;9418;52.694;13.294;2022-07-29T01:57:09;14.20;99.90
18577;DHT22;9418;52.694;13.294;2022-07-29T01:59:37;14.10;99.90
18577;DHT22;9418;52.694;13.294;2022-07-29T02:02:08;14.20;99.90
18577;DHT22;9418;52.694;13.294;2022-07-29T02:04:36;14.10;99.90
18577;DHT22;9418;52.694;13.294;2022-07-29T02:07:06;14.10;99.90
18577;DHT22;9418;52.694;13.294;2022-07-29T02:09:34;14.10;99.90
18577;DHT22;9418;52.694;13.294;2022-07-29T02:12:04;14.10;99.90
18577;DHT22;9418;52.694;13.294;2022-07-29T02:14:35;14.10;99.90
18577;DHT22;9418;52.694;13.294;2022-07-29T02:17:02;14.10;99.90
18577;DHT22;9418;52.694;13.294;2022-07-29T02:19:32;14.10;99.90
18577;DHT22;9418;52.694;13.294;2022-07-29T02:22:00;14.00;99.90
18577;DHT22;9418;52.694;13.294;2022-07-29T02:24:28;14.00;99.90
18577;DHT22;9418;52.694;13.294;2022-07-29T02:26:56;14.00;99.90
18577;DHT22;9418;52.694;13.294;2022-07-29T02:29:26;14.00;99.90
18577;DHT22;9418;52.694;13.294;2022-07-29T02:31:56;14.00;99.90
18577;DHT22;9418;52.694;13.294;2022-07-29T02:34:25;14.00;99.90
18577;DHT22;9418;52.694;13.294;2022-07-29T02:36:56;14.00;99.90
18577;DHT22;9418;52.694;13.294;2022-07-29T02:39:24;14.00;99.90
18577;DHT22;9418;52.694;13.294;2022-07-29T02:41:55;14.00;99.90
18577;DHT22;9418;52.694;13.294;2022-07-29T02:44:24;14.00;99.90
18577;DHT22;9418;52.694;13.294;2022-07-29T02:46:55;13.90;99.90
18577;DHT22;9418;52.694;13.294;2022-07-29T02:49:34;13.90;99.90
18577;DHT22;9418;52.694;13.294;2022-07-29T02:52:04;13.90;1.40
18577;DHT22;9418;52.694;13.294;2022-07-29T02:54:38;13.80;99.90
18577;DHT22;9418;52.694;13.294;2022-07-29T02:57:11;13.80;99.90
18577;DHT22;9418;52.694;13.294;2022-07-29T02:59:42;13.90;99.90
18577;DHT22;9418;52.694;13.294;2022-07-29T03:02:10;13.80;99.90
18577;DHT22;9418;52.694;13.294;2022-07-29T03:04:40;13.80;99.90
18577;DHT22;9418;52.694;13.294;2022-07-29T03:07:10;13.80;99.90
18577;DHT22;9418;52.694;13.294;2022-07-29T03:09:38;13.80;99.90
18577;DHT22;9418;52.694;13.294;2022-07-29T03:12:05;13.80;99.90
18577;DHT22;9418;52.694;13.294;2022-07-29T03:14:32;13.80;99.90
18577;DHT22;9418;52.694;13.294;2022-07-29T03:17:00;13.80;99.90
18577;DHT22;9418;52.694;13.294;2022-07-29T03:19:27;13.80;99.90
18577;DHT22;9418;52.694;13.294;2022-07-29T03:21:56;13.80;99.90
18577;DHT22;9418;52.694;13.294;2022-07-29T03:24:28;13.80;99.90
18577;DHT22;9418;52.694;13.294;2022-07-29T03:26:56;13.80;99.90
18577;DHT22;9418;52.694;13.294;2022-07-29T03:29:23;13.80;99.90
18577;DHT22;9418;52.694;13.294;2022-07-29T03:31:50;13.80;99.90
18577;DHT22;9418;52.694;13.294;2022-07-29T03:34:16;13.80;99.90
18577;DHT22;9418;52.694;13.294;2022-07-29T03:36:43;13.80;99.90
18577;DHT22;9418;52.694;13.294;2022-07-29T03:39:10;13.80;1.40
18577;DHT22;9418;52.694;13.294;2022-07-29T03:41:41;13.90;99.90
18577;DHT22;9418;52.694;13.294;2022-07-29T03:44:09;13.80;99.90
18577;DHT22;9418;52.694;13.294;2022-07-29T03:46:39;13.90;99.90
18577;DHT22;9418;52.694;13.294;2022-07-29T03:49:06;13.90;99.90
18577;DHT22;9418;52.694;13.294;2022-07-29T03:51:35;13.90;99.90
18577;DHT22;9418;52.694;13.294;2022-07-29T03:54:01;13.80;99.90
18577;DHT22;9418;52.694;13.294;2022-07-29T03:56:29;13.80;99.90
18577;DHT22;9418;52.694;13.294;2022-07-29T03:59:01;13.90;99.90
18577;DHT22;9418;52.694;13.294;2022-07-29T04:01:29;13.90;99.90
18577;DHT22;9418;52.694;13.294;2022-07-29T04:03:56;13.90;99.90
18577;DHT22;9418;52.694;13.294;2022-07-29T04:06:23;13.90;99.90
18577;DHT22;9418;52.694;13.294;2022-07-29T04:08:51;13.90;99.90
18577;DHT22;9418;52.694;13.294;2022-07-29T04:11:17;13.90;99.90
18577;DHT22;9418;52.694;13.294;2022-07-29T04:13:44;13.90;99.90
18577;DHT22;9418;52.694;13.294;2022-07-29T04:16:12;14.00;99.90
18577;DHT22;9418;52.694;13.294;2022-07-29T04:18:38;14.00;99.90
18577;DHT22;9418;52.694;13.294;2022-07-29T04:21:05;14.00;99.90
18577;DHT22;9418;52.694;13.294;2022-07-29T04:23:31;14.00;99.90
18577;DHT22;9418;52.694;13.294;2022-07-29T04:25:58;14.00;99.90
18577;DHT22;9418;52.694;13.294;2022-07-29T04:28:26;14.00;99.90
18577;DHT22;9418;52.694;13.294;2022-07-29T04:30:53;14.00;99.90
18577;DHT22;9418;52.694;13.294;2022-07-29T04:33:21;14.00;99.90
18577;DHT22;9418;52.694;13.294;2022-07-29T04:35:47;14.10;99.90
18577;DHT22;9418;52.694;13.294;2022-07-29T04:38:14;14.10;99.90
18577;DHT22;9418;52.694;13.294;2022-07-29T04:40:40;14.00;99.90
18577;DHT22;9418;52.694;13.294;2022-07-29T04:43:07;14.10;99.90
18577;DHT22;9418;52.694;13.294;2022-07-29T04:45:34;14.10;99.90
18577;DHT22;9418;52.694;13.294;2022-07-29T04:48:00;14.10;99.90
18577;DHT22;9418;52.694;13.294;2022-07-29T04:50:28;14.10;99.90
18577;DHT22;9418;52.694;13.294;2022-07-29T04:52:55;14.10;99.90
18577;DHT22;9418;52.694;13.294;2022-07-29T04:55:21;14.10;99.90
18577;DHT22;9418;52.694;13.294;2022-07-29T04:57:48;14.20;99.90
18577;DHT22;9418;52.694;13.294;2022-07-29T05:00:15;14.20;99.90
18577;DHT22;9418;52.694;13.294;2022-07-29T05:02:41;14.20;99.90
18577;DHT22;9418;52.694;13.294;2022-07-29T05:05:08;14.20;99.90
18577;DHT22;9418;52.694;13.294;2022-07-29T05:07:36;14.30;99.90
18577;DHT22;9418;52.694;13.294;2022-07-29T05:10:03;14.30;99.90
18577;DHT22;9418;52.694;13.294;2022-07-29T05:12:30;14.40;99.90
18577;DHT22;9418;52.694;13.294;2022-07-29T05:14:57;14.40;99.90
18577;DHT22;9418;52.694;13.294;2022-07-29T05:17:23;14.50;99.90
18577;DHT22;9418;52.694;13.294;2022-07-29T05:19:50;14.60;99.90
18577;DHT22;9418;52.694;13.294;2022-07-29T05:22:17;14.60;99.90
18577;DHT22;9418;52.694;13.294;2022-07-29T05:24:46;14.80;99.90
18577;DHT22;9418;52.694;13.294;2022-07-29T05:27:13;14.90;99.90
18577;DHT22;9418;52.694;13.294;2022-07-29T05:29:39;15.00;99.90
18577;DHT22;9418;52.694;13.294;2022-07-29T05:32:06;15.20;99.90
18577;DHT22;9418;52.694;13.294;2022-07-29T05:34:33;15.20;99.90
18577;DHT22;9418;52.694;13.294;2022-07-29T05:36:59;15.30;99.90
18577;DHT22;9418;52.694;13.294;2022-07-29T05:39:26;15.30;99.90
18577;DHT22;9418;52.694;13.294;2022-07-29T05:41:54;15.40;99.90
18577;DHT22;9418;52.694;13.294;2022-07-29T05:44:20;15.40;99.90
18577;DHT22;9418;52.694;13.294;2022-07-29T05:46:47;15.50;99.90
18577;DHT22;9418;52.694;13.294;2022-07-29T05:49:13;15.50;99.90
18577;DHT22;9418;52.694;13.294;2022-07-29T05:51:40;15.60;99.90
18577;DHT22;9418;52.694;13.294;2022-07-29T05:54:06;15.60;99.90
18577;DHT22;9418;52.694;13.294;2022-07-29T05:56:35;15.70;99.90
18577;DHT22;9418;52.694;13.294;2022-07-29T05:59:03;15.70;99.90
18577;DHT22;9418;52.694;13.294;2022-07-29T06:01:30;15.70;99.90
18577;DHT22;9418;52.694;13.294;2022-07-29T06:03:56;15.70;99.90
18577;DHT22;9418;52.694;13.294;2022-07-29T06:06:23;15.80;99.90
18577;DHT22;9418;52.694;13.294;2022-07-29T06:08:50;15.80;99.90
18577;DHT22;9418;52.694;13.294;2022-07-29T06:11:17;15.90;99.90
18577;DHT22;9418;52.694;13.294;2022-07-29T06:13:43;15.90;99.90
18577;DHT22;9418;52.694;13.294;2022-07-29T06:16:11;16.00;99.90
18577;DHT22;9418;52.694;13.294;2022-07-29T06:18:38;16.10;99.90
18577;DHT22;9418;52.694;13.294;2022-07-29T06:21:07;16.20;99.90
18577;DHT22;9418;52.694;13.294;2022-07-29T06:23:35;16.20;99.90
18577;DHT22;9418;52.694;13.294;2022-07-29T06:26:01;16.30;99.90
18577;DHT22;9418;52.694;13.294;2022-07-29T06:28:28;16.40;99.90
18577;DHT22;9418;52.694;13.294;2022-07-29T06:30:55;16.50;99.90
18577;DHT22;9418;52.694;13.294;2022-07-29T06:33:23;16.50;21.80
18577;DHT22;9418;52.694;13.294;2022-07-29T06:35:49;16.60;25.00
18577;DHT22;9418;52.694;13.294;2022-07-29T06:38:16;16.60;30.20
18577;DHT22;9418;52.694;13.294;2022-07-29T06:40:43;16.60;30.70
18577;DHT22;9418;52.694;13.294;2022-07-29T06:43:31;16.70;28.90
18577;DHT22;9418;52.694;13.294;2022-07-29T06:46:00;16.70;26.60
18577;DHT22;9418;52.694;13.294;2022-07-29T06:48:29;16.70;26.80
18577;DHT22;9418;52.694;13.294;2022-07-29T06:50:55;16.80;26.40
18577;DHT22;9418;52.694;13.294;2022-07-29T06:53:22;16.80;30.40
18577;DHT22;9418;52.694;13.294;2022-07-29T06:55:49;16.90;33.10
18577;DHT22;9418;52.694;13.294;2022-07-29T06:58:16;16.90;29.70
18577;DHT22;9418;52.694;13.294;2022-07-29T07:00:45;17.00;29.30
18577;DHT22;9418;52.694;13.294;2022-07-29T07:03:13;17.10;28.00
18577;DHT22;9418;52.694;13.294;2022-07-29T07:05:41;17.10;25.30
18577;DHT22;9418;52.694;13.294;2022-07-29T07:08:07;17.20;31.60
18577;DHT22;9418;52.694;13.294;2022-07-29T07:10:34;17.20;43.60
18577;DHT22;9418;52.694;13.294;2022-07-29T07:13:00;17.30;40.70
18577;DHT22;9418;52.694;13.294;2022-07-29T07:15:27;17.40;40.50
18577;DHT22;9418;52.694;13.294;2022-07-29T07:17:54;17.50;38.80
18577;DHT22;9418;52.694;13.294;2022-07-29T07:20:20;17.50;43.20
18577;DHT22;9418;52.694;13.294;2022-07-29T07:22:48;17.60;45.00
18577;DHT22;9418;52.694;13.294;2022-07-29T07:25:15;17.70;52.70
18577;DHT22;9418;52.694;13.294;2022-07-29T07:27:42;17.80;52.30
18577;DHT22;9418;52.694;13.294;2022-07-29T07:30:09;17.80;58.90
18577;DHT22;9418;52.694;13.294;2022-07-29T07:32:36;17.90;59.80
18577;DHT22;9418;52.694;13.294;2022-07-29T07:35:04;18.00;58.00
18577;DHT22;9418;52.694;13.294;2022-07-29T07:37:31;18.00;65.50
18577;DHT22;9418;52.694;13.294;2022-07-29T07:39:59;18.10;69.50
18577;DHT22;9418;52.694;13.294;2022-07-29T07:42:26;18.20;69.20
18577;DHT22;9418;52.694;13.294;2022-07-29T07:44:53;18.30;68.20
18577;DHT22;9418;52.694;13.294;2022-07-29T07:47:20;18.40;70.90
18577;DHT22;9418;52.694;13.294;2022-07-29T07:49:46;18.50;70.90
18577;DHT22;9418;52.694;13.294;2022-07-29T07:52:13;18.70;77.70
18577;DHT22;9418;52.694;13.294;2022-07-29T07:54:40;18.90;81.50
18577;DHT22;9418;52.694;13.294;2022-07-29T07:57:09;19.00;95.80
18577;DHT22;9418;52.694;13.294;2022-07-29T07:59:36;19.40;99.90
18577;DHT22;9418;52.694;13.294;2022-07-29T08:02:03;19.60;99.90
18577;DHT22;9418;52.694;13.294;2022-07-29T08:04:29;19.80;99.90
18577;DHT22;9418;52.694;13.294;2022-07-29T08:06:57;20.00;99.90
18577;DHT22;9418;52.694;13.294;2022-07-29T08:09:25;20.20;99.90
18577;DHT22;9418;52.694;13.294;2022-07-29T08:11:52;20.30;99.90
18577;DHT22;9418;52.694;13.294;2022-07-29T08:14:20;20.40;99.90
18577;DHT22;9418;52.694;13.294;2022-07-29T08:16:47;20.60;99.90
18577;DHT22;9418;52.694;13.294;2022-07-29T08:19:14;20.90;99.90
18577;DHT22;9418;52.694;13.294;2022-07-29T08:21:41;21.10;99.90
18577;DHT22;9418;52.694;13.294;2022-07-29T08:24:08;21.20;99.90
18577;DHT22;9418;52.694;13.294;2022-07-29T08:26:52;21.50;99.90
18577;DHT22;9418;52.694;13.294;2022-07-29T08:29:19;21.60;99.90
18577;DHT22;9418;52.694;13.294;2022-07-29T08:31:46;21.60;99.90
18577;DHT22;9418;52.694;13.294;2022-07-29T08:34:13;21.70;99.90
18577;DHT22;9418;52.694;13.294;2022-07-29T08:36:40;21.80;99.90
18577;DHT22;9418;52.694;13.294;2022-07-29T08:39:07;21.90;99.90
18577;DHT22;9418;52.694;13.294;2022-07-29T08:41:33;22.00;99.90
18577;DHT22;9418;52.694;13.294;2022-07-29T08:44:01;22.10;99.90
18577;DHT22;9418;52.694;13.294;2022-07-29T08:46:29;22.40;99.90
18577;DHT22;9418;52.694;13.294;2022-07-29T08:48:56;22.50;99.90
18577;DHT22;9418;52.694;13.294;2022-07-29T08:51:24;22.80;99.90
18577;DHT22;9418;52.694;13.294;2022-07-29T08:53:51;22.90;99.90
18577;DHT22;9418;52.694;13.294;2022-07-29T08:56:19;23.00;99.90
18577;DHT22;9418;52.694;13.294;2022-07-29T08:58:47;23.20;99.90
18577;DHT22;9418;52.694;13.294;2022-07-29T09:01:16;23.30;99.90
18577;DHT22;9418;52.694;13.294;2022-07-29T09:03:46;23.50;99.90
18577;DHT22;9418;52.694;13.294;2022-07-29T09:06:13;23.70;99.90
18577;DHT22;9418;52.694;13.294;2022-07-29T09:08:40;23.90;99.90
18577;DHT22;9418;52.694;13.294;2022-07-29T09:11:07;24.30;99.90
18577;DHT22;9418;52.694;13.294;2022-07-29T09:13:35;24.80;99.90
18577;DHT22;9418;52.694;13.294;2022-07-29T09:16:01;25.20;99.90
18577;DHT22;9418;52.694;13.294;2022-07-29T09:18:36;25.40;99.90
18577;DHT22;9418;52.694;13.294;2022-07-29T09:21:05;25.40;99.90
18577;DHT22;9418;52.694;13.294;2022-07-29T09:24:00;25.30;99.90
18577;DHT22;9418;52.694;13.294;2022-07-29T09:26:28;25.50;99.90
18577;DHT22;9418;52.694;13.294;2022-07-29T09:28:56;25.60;99.90
18577;DHT22;9418;52.694;13.294;2022-07-29T09:31:32;25.50;99.90
18577;DHT22;9418;52.694;13.294;2022-07-29T09:33:59;25.40;99.90
18577;DHT22;9418;52.694;13.294;2022-07-29T09:36:27;25.60;99.90
18577;DHT22;9418;52.694;13.294;2022-07-29T09:38:58;25.30;99.90
18577;DHT22;9418;52.694;13.294;2022-07-29T09:41:25;25.30;99.90
18577;DHT22;9418;52.694;13.294;2022-07-29T09:43:55;25.20;99.90
18577;DHT22;9418;52.694;13.294;2022-07-29T09:46:23;25.30;99.90
18577;DHT22;9418;52.694;13.294;2022-07-29T09:49:06;25.50;99.90
18577;DHT22;9418;52.694;13.294;2022-07-29T09:51:34;25.50;99.90
18577;DHT22;9418;52.694;13.294;2022-07-29T09:54:01;25.60;99.90
18577;DHT22;9418;52.694;13.294;2022-07-29T09:56:39;25.60;99.90
18577;DHT22;9418;52.694;13.294;2022-07-29T09:59:07;25.70;99.90
18577;DHT22;9418;52.694;13.294;2022-07-29T10:01:33;25.60;99.90
18577;DHT22;9418;52.694;13.294;2022-07-29T10:04:01;25.40;99.90
18577;DHT22;9418;52.694;13.294;2022-07-29T10:06:28;25.10;99.90
18577;DHT22;9418;52.694;13.294;2022-07-29T10:09:07;25.20;99.90
18577;DHT22;9418;52.694;13.294;2022-07-29T10:11:34;25.50;99.90
18577;DHT22;9418;52.694;13.294;2022-07-29T10:14:03;25.60;99.90
18577;DHT22;9418;52.694;13.294;2022-07-29T10:16:30;25.80;99.90
18577;DHT22;9418;52.694;13.294;2022-07-29T10:18:59;26.00;99.90
18577;DHT22;9418;52.694;13.294;2022-07-29T10:21:26;26.10;99.90
18577;DHT22;9418;52.694;13.294;2022-07-29T10:23:53;26.20;99.90
18577;DHT22;9418;52.694;13.294;2022-07-29T10:26:21;26.10;99.90
18577;DHT22;9418;52.694;13.294;2022-07-29T10:28:48;26.30;99.90
18577;DHT22;9418;52.694;13.294;2022-07-29T10:31:22;26.20;99.90
18577;DHT22;9418;52.694;13.294;2022-07-29T10:34:00;26.30;99.90
18577;DHT22;9418;52.694;13.294;2022-07-29T10:36:41;26.20;99.90
18577;DHT22;9418;52.694;13.294;2022-07-29T10:39:19;25.90;99.90
18577;DHT22;9418;52.694;13.294;2022-07-29T10:42:05;25.90;99.90
18577;DHT22;9418;52.694;13.294;2022-07-29T10:44:36;26.00;99.90
18577;DHT22;9418;52.694;13.294;2022-07-29T10:47:05;26.10;99.90
18577;DHT22;9418;52.694;13.294;2022-07-29T10:49:32;25.80;99.90
18577;DHT22;9418;52.694;13.294;2022-07-29T10:52:04;25.90;99.90
18577;DHT22;9418;52.694;13.294;2022-07-29T10:54:44;25.60;99.90
18577;DHT22;9418;52.694;13.294;2022-07-29T10:57:19;25.40;99.90
18577;DHT22;9418;52.694;13.294;2022-07-29T10:59:47;25.40;99.90
18577;DHT22;9418;52.694;13.294;2022-07-29T11:02:40;25.30;99.90
18577;DHT22;9418;52.694;13.294;2022-07-29T11:05:08;25.30;99.90
18577;DHT22;9418;52.694;13.294;2022-07-29T11:07:36;25.40;99.90
18577;DHT22;9418;52.694;13.294;2022-07-29T11:10:22;25.60;99.90
18577;DHT22;9418;52.694;13.294;2022-07-29T11:12:51;25.70;99.90
18577;DHT22;9418;52.694;13.294;2022-07-29T11:15:19;25.70;99.90
18577;DHT22;9418;52.694;13.294;2022-07-29T11:18:06;25.60;99.90
18577;DHT22;9418;52.694;13.294;2022-07-29T11:20:35;25.70;99.90
18577;DHT22;9418;52.694;13.294;2022-07-29T11:23:17;25.70;99.90
18577;DHT22;9418;52.694;13.294;2022-07-29T11:25:45;25.90;99.90
18577;DHT22;9418;52.694;13.294;2022-07-29T11:28:17;26.20;99.90
18577;DHT22;9418;52.694;13.294;2022-07-29T11:30:49;26.30;99.90
18577;DHT22;9418;52.694;13.294;2022-07-29T11:33:29;26.60;99.90
18577;DHT22;9418;52.694;13.294;2022-07-29T11:36:09;26.50;99.90
18577;DHT22;9418;52.694;13.294;2022-07-29T11:38:37;26.30;99.90
18577;DHT22;9418;52.694;13.294;2022-07-29T11:41:22;26.10;99.90
18577;DHT22;9418;52.694;13.294;2022-07-29T11:43:52;26.20;99.90
18577;DHT22;9418;52.694;13.294;2022-07-29T11:46:46;26.30;99.90
18577;DHT22;9418;52.694;13.294;2022-07-29T11:49:19;26.50;99.90
18577;DHT22;9418;52.694;13.294;2022-07-29T11:51:50;26.70;99.90
18577;DHT22;9418;52.694;13.294;2022-07-29T11:54:31;26.70;99.90
18577;DHT22;9418;52.694;13.294;2022-07-29T11:56:58;27.00;99.90
18577;DHT22;9418;52.694;13.294;2022-07-29T11:59:27;27.10;99.90
18577;DHT22;9418;52.694;13.294;2022-07-29T12:01:55;27.30;99.90
18577;DHT22;9418;52.694;13.294;2022-07-29T12:04:22;27.30;99.90
18577;DHT22;9418;52.694;13.294;2022-07-29T12:06:50;27.10;99.90
18577;DHT22;9418;52.694;13.294;2022-07-29T12:09:17;27.20;99.90
18577;DHT22;9418;52.694;13.294;2022-07-29T12:11:44;27.20;99.90
18577;DHT22;9418;52.694;13.294;2022-07-29T12:14:24;27.40;99.90
18577;DHT22;9418;52.694;13.294;2022-07-29T12:16:52;27.30;99.90
18577;DHT22;9418;52.694;13.294;2022-07-29T12:19:19;27.30;99.90
18577;DHT22;9418;52.694;13.294;2022-07-29T12:21:46;27.10;99.90
18577;DHT22;9418;52.694;13.294;2022-07-29T12:24:13;27.10;99.90
18577;DHT22;9418;52.694;13.294;2022-07-29T12:26:49;27.30;99.90
18577;DHT22;9418;52.694;13.294;2022-07-29T12:29:16;27.20;99.90
18577;DHT22;9418;52.694;13.294;2022-07-29T12:31:43;27.40;99.90
18577;DHT22;9418;52.694;13.294;2022-07-29T12:34:12;27.20;99.90
18577;DHT22;9418;52.694;13.294;2022-07-29T12:36:40;27.10;99.90
18577;DHT22;9418;52.694;13.294;2022-07-29T12:39:08;27.20;99.90
18577;DHT22;9418;52.694;13.294;2022-07-29T12:41:35;27.30;99.90
18577;DHT22;9418;52.694;13.294;2022-07-29T12:44:02;27.30;99.90
18577;DHT22;9418;52.694;13.294;2022-07-29T12:46:28;27.40;99.90
18577;DHT22;9418;52.694;13.294;2022-07-29T12:48:55;27.60;99.90
18577;DHT22;9418;52.694;13.294;2022-07-29T12:51:29;27.90;99.90
18577;DHT22;9418;52.694;13.294;2022-07-29T12:54:05;28.00;99.90
18577;DHT22;9418;52.694;13.294;2022-07-29T12:56:32;28.20;99.90
18577;DHT22;9418;52.694;13.294;2022-07-29T12:58:59;28.10;99.90
18577;DHT22;9418;52.694;13.294;2022-07-29T13:01:25;28.10;99.90
18577;DHT22;9418;52.694;13.294;2022-07-29T13:03:54;28.00;99.90
18577;DHT22;9418;52.694;13.294;2022-07-29T13:06:35;28.10;99.90
18577;DHT22;9418;52.694;13.294;2022-07-29T13:09:08;28.10;99.90
18577;DHT22;9418;52.694;13.294;2022-07-29T13:11:37;27.70;99.90
18577;DHT22;9418;52.694;13.294;2022-07-29T13:14:07;27.70;99.90
18577;DHT22;9418;52.694;13.294;2022-07-29T13:16:35;27.80;99.90
18577;DHT22;9418;52.694;13.294;2022-07-29T13:19:04;27.70;99.90
18577;DHT22;9418;52.694;13.294;2022-07-29T13:21:32;27.30;99.90
18577;DHT22;9418;52.694;13.294;2022-07-29T13:23:59;27.20;99.90
18577;DHT22;9418;52.694;13.294;2022-07-29T13:26:26;27.30;99.90
18577;DHT22;9418;52.694;13.294;2022-07-29T13:28:53;27.30;99.90
18577;DHT22;9418;52.694;13.294;2022-07-29T13:31:20;27.10;99.90
18577;DHT22;9418;52.694;13.294;2022-07-29T13:33:47;27.00;99.90
18577;DHT22;9418;52.694;13.294;2022-07-29T13:36:14;26.70;99.90
18577;DHT22;9418;52.694;13.294;2022-07-29T13:38:42;26.70;99.90
18577;DHT22;9418;52.694;13.294;2022-07-29T13:41:09;26.90;99.90
18577;DHT22;9418;52.694;13.294;2022-07-29T13:43:36;27.20;99.90
18577;DHT22;9418;52.694;13.294;2022-07-29T13:46:02;27.30;99.90
18577;DHT22;9418;52.694;13.294;2022-07-29T13:48:29;27.40;99.90
18577;DHT22;9418;52.694;13.294;2022-07-29T13:50:56;27.30;99.90
18577;DHT22;9418;52.694;13.294;2022-07-29T13:53:23;27.30;99.90
18577;DHT22;9418;52.694;13.294;2022-07-29T13:55:51;27.20;99.90
18577;DHT22;9418;52.694;13.294;2022-07-29T13:58:18;27.30;99.90
18577;DHT22;9418;52.694;13.294;2022-07-29T14:00:45;27.50;99.90
18577;DHT22;9418;52.694;13.294;2022-07-29T14:03:12;27.70;99.90
18577;DHT22;9418;52.694;13.294;2022-07-29T14:05:38;27.80;99.90
18577;DHT22;9418;52.694;13.294;2022-07-29T14:08:05;27.80;99.90
18577;DHT22;9418;52.694;13.294;2022-07-29T14:10:31;27.90;99.90
18577;DHT22;9418;52.694;13.294;2022-07-29T14:12:59;28.10;99.90
18577;DHT22;9418;52.694;13.294;2022-07-29T14:15:26;28.20;99.90
18577;DHT22;9418;52.694;13.294;2022-07-29T14:17:52;28.30;99.90
18577;DHT22;9418;52.694;13.294;2022-07-29T14:20:19;28.00;99.90
18577;DHT22;9418;52.694;13.294;2022-07-29T14:22:46;27.50;99.90
18577;DHT22;9418;52.694;13.294;2022-07-29T14:25:12;27.80;99.90
18577;DHT22;9418;52.694;13.294;2022-07-29T14:27:39;27.80;99.90
18577;DHT22;9418;52.694;13.294;2022-07-29T14:30:08;27.90;99.90
18577;DHT22;9418;52.694;13.294;2022-07-29T14:32:35;27.80;99.90
18577;DHT22;9418;52.694;13.294;2022-07-29T14:35:02;27.90;99.90
18577;DHT22;9418;52.694;13.294;2022-07-29T14:37:28;28.20;99.90
18577;DHT22;9418;52.694;13.294;2022-07-29T14:39:55;28.20;99.90
18577;DHT22;9418;52.694;13.294;2022-07-29T14:42:24;28.30;99.90
18577;DHT22;9418;52.694;13.294;2022-07-29T14:44:51;27.90;99.90
18577;DHT22;9418;52.694;13.294;2022-07-29T14:47:19;27.60;99.90
18577;DHT22;9418;52.694;13.294;2022-07-29T14:49:47;27.40;99.90
18577;DHT22;9418;52.694;13.294;2022-07-29T14:52:13;27.20;99.90
18577;DHT22;9418;52.694;13.294;2022-07-29T14:54:41;27.30;99.90
18577;DHT22;9418;52.694;13.294;2022-07-29T14:57:07;27.40;99.90
18577;DHT22;9418;52.694;13.294;2022-07-29T14:59:34;27.50;99.90
18577;DHT22;9418;52.694;13.294;2022-07-29T15:02:01;27.50;99.90
18577;DHT22;9418;52.694;13.294;2022-07-29T15:04:29;27.30;99.90
18577;DHT22;9418;52.694;13.294;2022-07-29T15:06:55;27.10;99.90
18577;DHT22;9418;52.694;13.294;2022-07-29T15:09:22;26.90;99.90
18577;DHT22;9418;52.694;13.294;2022-07-29T15:11:49;26.80;99.90
18577;DHT22;9418;52.694;13.294;2022-07-29T15:14:15;26.60;99.90
18577;DHT22;9418;52.694;13.294;2022-07-29T15:16:42;26.60;99.90
18577;DHT22;9418;52.694;13.294;2022-07-29T15:19:09;26.90;99.90
18577;DHT22;9418;52.694;13.294;2022-07-29T15:21:37;27.10;99.90
18577;DHT22;9418;52.694;13.294;2022-07-29T15:24:04;27.40;99.90
18577;DHT22;9418;52.694;13.294;2022-07-29T15:26:32;27.40;99.90
18577;DHT22;9418;52.694;13.294;2022-07-29T15:28:59;27.60;99.90
18577;DHT22;9418;52.694;13.294;2022-07-29T15:31:26;27.70;99.90
18577;DHT22;9418;52.694;13.294;2022-07-29T15:33:52;27.80;99.90
18577;DHT22;9418;52.694;13.294;2022-07-29T15:36:19;27.70;99.90
18577;DHT22;9418;52.694;13.294;2022-07-29T15:38:47;27.80;99.90
18577;DHT22;9418;52.694;13.294;2022-07-29T15:41:15;27.80;99.90
18577;DHT22;9418;52.694;13.294;2022-07-29T15:43:43;27.80;99.90